aviador You're here:

LEVC Decoded Metar

VALENCIA in SPAIN
Report Time2015-04-28 00:00:00
UTC Time2015-04-28 00:29:27
Flight Rules vfr VFR
Wind310° at 03 kt
W.Decomp.*RWY 30: 2.9 kt HW 0.6 kt RCW
W.Rank310° ranks 8
Current wind is below 310° avg. (6.1)
Visibility9999 m
Phenomena:N/A
Clouds:N/A
Expected CloudBase > 4,000 ft AGL from Temp-Dew spread
CeilingNone
Temp16°C (ISA +1)
Dew Point06°C (52% RH)
AAT14.0°C
QNH1014 hPa
Density Alt463 ft
Elevation203 ft
Report Wrong Elevation
Raw Report
LEVC 280000Z 31003KT CAVOK 16/06 Q1014 NOSIG=

Extra information for LEVC:More info

Metar Taf Metar & Taf Last 4 Metars F.Rules Stats Wind Profile Meteogram Temp Stats Airport Information Weather charts Add Link Nearby VenuesMetar ALERT Operation Metar Decoded Social comments

Webcam Valencia